LVS105 SADL-SADL

Flight info

Callsign LVS105
Flight time 0h 18m
Altitude 1000
Route LOCAL
Aircraft SIRA/L-SFG/C

Departure

Time 2026-04-15 22:16
Airport La Plata Airport (SADL)

Arrival

Time 2026-04-15 22:35
Airport La Plata Airport (SADL)
Time Latitude Longitude Altitude Speed Heading
2026-04-15 22:11 -34.96584 -57.89521 60 ft 0 kts 286°
2026-04-15 22:13 -34.96588 -57.89514 60 ft 6 kts 75°
2026-04-15 22:13 -34.96588 -57.89512 60 ft 0 kts 78°
2026-04-15 22:13 -34.96660 -57.89437 60 ft 32 kts 181°
2026-04-15 22:14 -34.96960 -57.89525 58 ft 49 kts 194°
2026-04-15 22:14 -34.97252 -57.89615 61 ft 39 kts 196°
2026-04-15 22:14 -34.97469 -57.89665 60 ft 24 kts 160°
2026-04-15 22:14 -34.97584 -57.89541 60 ft 20 kts 100°
2026-04-15 22:15 -34.97520 -57.89487 57 ft 0 kts 15°
2026-04-15 22:15 -34.97514 -57.89485 56 ft 13 kts 14°
2026-04-15 22:15 -34.97147 -57.89372 95 ft 84 kts 13°
2026-04-15 22:15 -34.96521 -57.89164 333 ft 99 kts 14°
2026-04-15 22:16 -34.95801 -57.88921 458 ft 112 kts 15°
2026-04-15 22:16 -34.95055 -57.88782 575 ft 105 kts 345°
2026-04-15 22:16 -34.94506 -57.89302 691 ft 99 kts 316°
2026-04-15 22:16 -34.93986 -57.89836 811 ft 97 kts 319°
2026-04-15 22:17 -34.93446 -57.90307 930 ft 97 kts 336°
2026-04-15 22:17 -34.92805 -57.90592 987 ft 101 kts 343°
2026-04-15 22:17 -34.92116 -57.90843 989 ft 105 kts 340°
2026-04-15 22:17 -34.91418 -57.91121 991 ft 106 kts 348°
2026-04-15 22:18 -34.90689 -57.91271 993 ft 106 kts 349°
2026-04-15 22:18 -34.89960 -57.91432 994 ft 106 kts 349°
2026-04-15 22:18 -34.89261 -57.91686 991 ft 105 kts 321°
2026-04-15 22:18 -34.89066 -57.92479 987 ft 102 kts 257°
2026-04-15 22:19 -34.89217 -57.93305 982 ft 99 kts 259°
2026-04-15 22:19 -34.89405 -57.94100 985 ft 98 kts 247°
2026-04-15 22:19 -34.89661 -57.94867 985 ft 97 kts 249°
2026-04-15 22:19 -34.89936 -57.95620 985 ft 97 kts 239°
2026-04-15 22:20 -34.90318 -57.96349 1110 ft 109 kts 239°
2026-04-15 22:20 -34.90737 -57.97160 1242 ft 116 kts 234°
2026-04-15 22:20 -34.91268 -57.97887 1455 ft 113 kts 228°
2026-04-15 22:20 -34.91820 -57.98611 1488 ft 121 kts 222°
2026-04-15 22:21 -34.92474 -57.99233 1496 ft 115 kts 218°
2026-04-15 22:21 -34.93088 -57.99792 1494 ft 108 kts 211°
2026-04-15 22:21 -34.93742 -58.00204 1491 ft 104 kts 208°
2026-04-15 22:21 -34.94382 -58.00613 1487 ft 102 kts 207°
2026-04-15 22:22 -34.95048 -58.00894 1487 ft 99 kts 198°
2026-04-15 22:22 -34.95690 -58.01144 1486 ft 96 kts 198°
2026-04-15 22:22 -34.96339 -58.01286 1483 ft 95 kts 187°
2026-04-15 22:22 -34.96990 -58.01389 1486 ft 94 kts 188°
2026-04-15 22:23 -34.97636 -58.01473 1487 ft 94 kts 181°
2026-04-15 22:23 -34.98291 -58.01430 1487 ft 94 kts 179°
2026-04-15 22:23 -34.98944 -58.01394 1481 ft 94 kts 178°
2026-04-15 22:23 -34.99574 -58.01243 1486 ft 93 kts 167°
2026-04-15 22:24 -35.00213 -58.01070 1486 ft 94 kts 168°
2026-04-15 22:24 -35.00848 -58.00880 1485 ft 94 kts 161°
2026-04-15 22:24 -35.01451 -58.00566 1485 ft 94 kts 158°
2026-04-15 22:24 -35.02057 -58.00259 1485 ft 94 kts 158°
2026-04-15 22:25 -35.02622 -57.99846 1486 ft 95 kts 147°
2026-04-15 22:25 -35.03180 -57.99411 1485 ft 95 kts 148°
2026-04-15 22:25 -35.03724 -57.98980 1485 ft 94 kts 144°
2026-04-15 22:25 -35.04209 -57.98440 1486 ft 94 kts 138°
2026-04-15 22:26 -35.04695 -57.97897 1479 ft 95 kts 138°
2026-04-15 22:26 -35.05158 -57.97321 1481 ft 95 kts 128°
2026-04-15 22:26 -35.05555 -57.96675 1484 ft 95 kts 128°
2026-04-15 22:26 -35.05951 -57.96029 1487 ft 95 kts 121°
2026-04-15 22:27 -35.05885 -57.95285 1479 ft 95 kts 43°
2026-04-15 22:27 -35.05317 -57.94907 1490 ft 94 kts 27°
2026-04-15 22:27 -35.04748 -57.94515 1491 ft 94 kts 28°
2026-04-15 22:27 -35.04176 -57.94129 1492 ft 94 kts 28°
2026-04-15 22:28 -35.03603 -57.93742 1494 ft 94 kts 28°
2026-04-15 22:28 -35.03028 -57.93357 1493 ft 94 kts 28°
2026-04-15 22:28 -35.02454 -57.92973 1494 ft 94 kts 28°
2026-04-15 22:28 -35.01878 -57.92589 1494 ft 95 kts 28°
2026-04-15 22:29 -35.01302 -57.92205 1494 ft 94 kts 28°
2026-04-15 22:29 -35.00726 -57.91821 1494 ft 94 kts 27°
2026-04-15 22:29 -35.00150 -57.91438 1494 ft 94 kts 27°
2026-04-15 22:29 -34.99574 -57.91056 1494 ft 94 kts 28°
2026-04-15 22:30 -34.99007 -57.90680 1494 ft 94 kts 28°
2026-04-15 22:30 -34.98430 -57.90298 1483 ft 95 kts 27°
2026-04-15 22:30 -34.97863 -57.89922 1355 ft 90 kts 27°
2026-04-15 22:30 -34.97325 -57.89568 1228 ft 87 kts 28°
2026-04-15 22:31 -34.96784 -57.89256 1096 ft 86 kts
2026-04-15 22:31 -34.96348 -57.89618 994 ft 80 kts 278°
2026-04-15 22:31 -34.96394 -57.90238 982 ft 69 kts 270°
2026-04-15 22:31 -34.96530 -57.90839 986 ft 91 kts 224°
2026-04-15 22:32 -34.97167 -57.90902 941 ft 100 kts 153°
2026-04-15 22:32 -34.97761 -57.90512 994 ft 94 kts 133°
2026-04-15 22:32 -34.97983 -57.89807 1002 ft 90 kts 90°
2026-04-15 22:32 -34.97628 -57.89208 1032 ft 89 kts 42°
2026-04-15 22:33 -34.97099 -57.88798 998 ft 91 kts 38°
2026-04-15 22:33 -34.96525 -57.88459 996 ft 92 kts 33°
2026-04-15 22:33 -34.95939 -57.88128 989 ft 91 kts 36°
2026-04-15 22:33 -34.95416 -57.87794 995 ft 82 kts 27°
2026-04-15 22:34 -34.94937 -57.88125 808 ft 98 kts 280°
2026-04-15 22:34 -34.95137 -57.88758 696 ft 77 kts 200°
2026-04-15 22:34 -34.95599 -57.88917 436 ft 64 kts 185°
2026-04-15 22:34 -34.96038 -57.89038 199 ft 62 kts 188°
2026-04-15 22:35 -34.96430 -57.89151 70 ft 54 kts 188°
2026-04-15 22:35 -34.96671 -57.89238 63 ft 20 kts 225°
2026-04-15 22:35 -34.96645 -57.89391 59 ft 21 kts 299°
2026-04-15 22:35 -34.96599 -57.89512 60 ft 7 kts 289°
2026-04-15 22:36 -34.96597 -57.89520 60 ft 0 kts 283°